Time;durP1;ratioP1;P1;durP2;ratioP2;P2;SDS_P1;SDS_P2;PMS_P1;PMS_P2;Temp;Humidity;BMP_temperature;BMP_pressure;BME280_temperature;BME280_humidity;BME280_pressure;Samples;Min_cycle;Max_cycle;Signal;HPM_P1;HPM_P2
2022/03/18 00:01:21;;;;;;;8.95;3.10;;;4.50;99.90;;;;;;5032450;28;20095;-86
2022/03/18 00:03:47;;;;;;;10.50;4.25;;;4.40;99.90;;;;;;5032598;28;20045;-86
2022/03/18 00:06:16;;;;;;;12.15;3.50;;;4.30;99.90;;;;;;5032457;28;20038;-86
2022/03/18 00:08:42;;;;;;;9.50;3.55;;;4.20;99.90;;;;;;5031562;28;20044;-86
2022/03/18 00:11:08;;;;;;;11.88;3.38;;;4.20;99.90;;;;;;5030923;28;20080;-86
2022/03/18 00:13:34;;;;;;;9.32;3.40;;;4.10;99.90;;;;;;5031484;28;20088;-86
2022/03/18 00:16:00;;;;;;;9.65;2.88;;;4.00;99.90;;;;;;5030910;28;20080;-85
2022/03/18 00:18:26;;;;;;;6.97;2.50;;;4.00;99.90;;;;;;5030839;28;20034;-86
2022/03/18 00:20:51;;;;;;;15.43;3.42;;;4.00;99.90;;;;;;5030791;28;20036;-86
2022/03/18 00:23:17;;;;;;;10.95;3.38;;;3.90;99.90;;;;;;5031013;28;20434;-86
2022/03/18 00:25:43;;;;;;;11.55;3.22;;;3.90;99.90;;;;;;5031049;28;20045;-86
2022/03/18 00:28:08;;;;;;;11.57;2.95;;;3.90;99.90;;;;;;5031193;28;20579;-86
2022/03/18 00:30:34;;;;;;;11.15;3.17;;;3.90;99.90;;;;;;5030448;28;20483;-86
2022/03/18 00:32:59;;;;;;;12.57;3.47;;;3.90;99.90;;;;;;5030902;28;20095;-86
2022/03/18 00:35:25;;;;;;;9.70;3.08;;;3.90;99.90;;;;;;5030726;28;20041;-86
2022/03/18 00:37:50;;;;;;;11.45;3.47;;;3.90;99.90;;;;;;5014192;28;20120;-86
2022/03/18 00:40:16;;;;;;;11.18;3.50;;;3.90;99.90;;;;;;5031821;28;20037;-86
2022/03/18 00:42:41;;;;;;;10.98;3.55;;;3.90;99.90;;;;;;5014110;28;20037;-85
2022/03/18 00:45:10;;;;;;;12.10;3.97;;;3.90;99.90;;;;;;5030667;28;20077;-86
2022/03/18 00:53:10;;;;;;;11.45;4.15;;;4.00;99.90;;;;;;5030564;28;20060;-86
2022/03/18 00:55:35;;;;;;;12.25;3.83;;;4.00;99.90;;;;;;5030409;28;20033;-86
2022/03/18 00:58:01;;;;;;;11.82;3.95;;;3.90;99.90;;;;;;5030459;28;20387;-86
2022/03/18 01:00:26;;;;;;;13.68;3.40;;;3.90;99.90;;;;;;5030231;28;20522;-86
2022/03/18 01:02:52;;;;;;;13.05;4.30;;;3.90;99.90;;;;;;5030356;28;20565;-86
2022/03/18 01:05:18;;;;;;;9.63;3.03;;;3.80;99.90;;;;;;5030611;28;20410;-86
2022/03/18 01:07:43;;;;;;;11.70;3.63;;;3.80;99.90;;;;;;5030421;28;20073;-86
2022/03/18 01:10:09;;;;;;;16.80;4.55;;;3.80;99.90;;;;;;5030007;28;20084;-86
2022/03/18 01:12:35;;;;;;;12.50;3.58;;;3.90;99.90;;;;;;5030406;28;20083;-86
2022/03/18 01:15:00;;;;;;;16.45;3.92;;;3.90;99.90;;;;;;5030173;28;20507;-86
2022/03/18 01:17:26;;;;;;;9.90;3.55;;;3.80;99.90;;;;;;5030290;28;20037;-86
2022/03/18 01:19:51;;;;;;;11.63;3.95;;;3.80;99.90;;;;;;5030084;28;20252;-86
2022/03/18 01:22:17;;;;;;;12.63;3.58;;;3.80;99.90;;;;;;5029718;28;20411;-86
2022/03/18 01:24:42;;;;;;;17.50;3.75;;;3.70;99.90;;;;;;5029853;28;20040;-86
2022/03/18 01:27:08;;;;;;;11.57;3.42;;;3.70;99.90;;;;;;5013692;28;20042;-86
2022/03/18 01:29:34;;;;;;;12.40;3.58;;;3.70;99.90;;;;;;5029705;28;20495;-86
2022/03/18 01:32:00;;;;;;;9.38;3.25;;;3.70;99.90;;;;;;5030189;28;20029;-86
2022/03/18 01:34:25;;;;;;;7.38;2.83;;;3.60;99.90;;;;;;5029861;28;20037;-86
2022/03/18 01:36:51;;;;;;;10.75;3.92;;;3.60;99.90;;;;;;5029834;28;20046;-86
2022/03/18 01:39:17;;;;;;;20.98;4.20;;;3.60;99.90;;;;;;5029858;28;20044;-86
2022/03/18 01:41:43;;;;;;;9.60;3.75;;;3.60;99.90;;;;;;5029766;28;20038;-86
2022/03/18 01:44:10;;;;;;;10.15;3.83;;;3.60;99.90;;;;;;5029779;28;20033;-86
2022/03/18 01:46:37;;;;;;;13.77;4.53;;;3.60;99.90;;;;;;5029888;28;20042;-86
2022/03/18 01:49:04;;;;;;;11.52;3.80;;;3.60;99.90;;;;;;5013713;28;20084;-86
2022/03/18 01:51:29;;;;;;;7.45;2.70;;;3.70;99.90;;;;;;5029524;28;20103;-86
2022/03/18 01:56:40;;;;;;;9.48;3.53;;;3.60;99.90;;;;;;5029211;28;20141;-86
2022/03/18 01:59:06;;;;;;;11.20;3.70;;;3.60;99.90;;;;;;5013404;28;20516;-86
2022/03/18 02:01:32;;;;;;;7.53;2.45;;;3.50;99.90;;;;;;5031969;28;20034;-86
2022/03/18 02:03:58;;;;;;;8.60;3.60;;;3.50;99.90;;;;;;5033617;28;20411;-86
2022/03/18 02:06:23;;;;;;;13.05;4.63;;;3.50;99.90;;;;;;5033661;28;20129;-86
2022/03/18 02:08:49;;;;;;;10.18;3.60;;;3.50;99.90;;;;;;5032953;28;20060;-86
2022/03/18 02:11:14;;;;;;;13.90;4.07;;;3.50;99.90;;;;;;5032755;28;20049;-86
2022/03/18 02:13:40;;;;;;;10.90;3.60;;;3.50;99.90;;;;;;5016682;28;20044;-86
2022/03/18 02:16:05;;;;;;;8.45;3.75;;;3.50;99.90;;;;;;5033381;28;20045;-86
2022/03/18 02:18:31;;;;;;;10.50;4.03;;;3.40;99.90;;;;;;5033460;28;20042;-85
2022/03/18 02:20:56;;;;;;;12.80;3.30;;;3.40;99.90;;;;;;5016206;28;20029;-86
2022/03/18 02:23:22;;;;;;;8.82;3.13;;;3.40;99.90;;;;;;5032765;28;20137;-86
2022/03/18 02:25:48;;;;;;;11.23;3.17;;;3.30;99.90;;;;;;5033023;28;20048;-86
2022/03/18 02:28:13;;;;;;;10.98;3.60;;;3.20;99.90;;;;;;5033338;28;20045;-86
2022/03/18 02:30:39;;;;;;;9.23;3.33;;;3.20;99.90;;;;;;5032397;28;20592;-86
2022/03/18 02:33:05;;;;;;;13.00;3.53;;;3.20;99.90;;;;;;5033278;28;20449;-86
2022/03/18 02:35:32;;;;;;;15.35;4.47;;;3.10;99.90;;;;;;5032721;28;20072;-86
2022/03/18 02:37:58;;;;;;;12.02;3.50;;;3.10;99.90;;;;;;5032678;28;20387;-86
2022/03/18 02:40:26;;;;;;;9.48;3.50;;;3.10;99.90;;;;;;5032676;28;20128;-87
2022/03/18 02:42:52;;;;;;;11.07;3.72;;;3.10;99.90;;;;;;5033039;28;20390;-86
2022/03/18 02:45:17;;;;;;;9.43;3.08;;;3.10;99.90;;;;;;5032884;28;20562;-86
2022/03/18 02:47:43;;;;;;;13.40;4.25;;;3.10;99.90;;;;;;5032640;28;20546;-86
2022/03/18 02:50:09;;;;;;;10.80;4.10;;;3.10;99.90;;;;;;5032007;28;20132;-86
2022/03/18 02:52:35;;;;;;;11.70;3.97;;;3.10;99.90;;;;;;5032657;28;20045;-86
2022/03/18 02:55:01;;;;;;;11.27;4.25;;;3.20;99.90;;;;;;5032555;28;20045;-86
2022/03/18 02:57:26;;;;;;;13.38;4.18;;;3.10;99.90;;;;;;5032436;28;20083;-86
2022/03/18 02:59:52;;;;;;;13.95;4.80;;;3.20;99.90;;;;;;5032078;28;20087;-86
2022/03/18 03:02:17;;;;;;;13.75;4.07;;;3.10;99.90;;;;;;5016160;28;20038;-86
2022/03/18 03:10:11;;;;;;;14.00;4.90;;;3.20;99.90;;;;;;5031938;28;20099;-86
2022/03/18 03:12:41;;;;;;;16.40;4.75;;;3.20;99.90;;;;;;5031483;28;20112;-86
2022/03/18 03:15:08;;;;;;;15.75;5.22;;;3.20;99.90;;;;;;5031997;28;20045;-86
2022/03/18 03:17:34;;;;;;;14.43;4.88;;;3.30;99.90;;;;;;5032489;28;20060;-86
2022/03/18 03:19:59;;;;;;;13.02;5.38;;;3.30;99.90;;;;;;5015476;28;20041;-86
2022/03/18 03:22:25;;;;;;;13.77;4.88;;;3.30;99.90;;;;;;5032179;28;20510;-86
2022/03/18 03:24:51;;;;;;;12.52;4.30;;;3.30;99.90;;;;;;5031905;28;20144;-86
2022/03/18 03:27:17;;;;;;;12.43;4.47;;;3.30;99.90;;;;;;5031726;28;20048;-86
2022/03/18 03:29:43;;;;;;;15.70;6.00;;;3.20;99.90;;;;;;5031284;28;20648;-86
2022/03/18 03:32:08;;;;;;;16.38;5.38;;;3.30;99.90;;;;;;5031248;28;20132;-87
2022/03/18 03:34:34;;;;;;;16.52;5.28;;;3.30;99.90;;;;;;5031852;28;20120;-86
2022/03/18 03:37:01;;;;;;;13.02;5.18;;;3.30;99.90;;;;;;5031683;28;20049;-86
2022/03/18 03:39:26;;;;;;;16.95;5.90;;;3.30;99.90;;;;;;5031735;28;20041;-86
2022/03/18 03:41:52;;;;;;;14.50;5.65;;;3.30;99.90;;;;;;5019084;28;20086;-86
2022/03/18 03:44:18;;;;;;;16.48;5.43;;;3.40;99.90;;;;;;5024452;28;20410;-86
2022/03/18 03:46:44;;;;;;;14.35;5.85;;;3.40;99.90;;;;;;5031647;28;20037;-86
2022/03/18 03:49:09;;;;;;;11.60;5.15;;;3.40;99.90;;;;;;5031433;28;20107;-86
2022/03/18 03:51:35;;;;;;;13.15;5.30;;;3.40;99.90;;;;;;5030963;28;20078;-86
2022/03/18 03:54:01;;;;;;;14.45;5.80;;;3.40;99.90;;;;;;5031292;28;20041;-86
2022/03/18 03:56:26;;;;;;;12.75;5.63;;;3.40;99.90;;;;;;5031431;28;20099;-87
2022/03/18 03:58:52;;;;;;;13.95;5.55;;;3.40;99.90;;;;;;5031403;28;20048;-86
2022/03/18 04:01:17;;;;;;;13.77;6.45;;;3.40;99.90;;;;;;5031039;28;20062;-86
2022/03/18 04:03:45;;;;;;;12.55;5.68;;;3.30;99.90;;;;;;5031363;28;20528;-86
2022/03/18 04:06:10;;;;;;;11.30;4.65;;;3.40;99.90;;;;;;5031113;28;20056;-86
2022/03/18 04:08:36;;;;;;;13.32;5.55;;;3.30;99.90;;;;;;5031368;28;20059;-86
2022/03/18 04:11:02;;;;;;;15.27;6.18;;;3.30;99.90;;;;;;5014462;28;20048;-87
2022/03/18 04:13:28;;;;;;;13.40;5.72;;;3.30;99.90;;;;;;5031602;28;20033;-86
2022/03/18 04:15:53;;;;;;;15.02;6.43;;;3.30;99.90;;;;;;5014500;28;20550;-86
2022/03/18 04:18:19;;;;;;;19.70;7.20;;;3.30;99.90;;;;;;5031264;28;20048;-86
2022/03/18 04:20:44;;;;;;;13.45;5.38;;;3.30;99.90;;;;;;5030553;28;20123;-86
2022/03/18 04:23:10;;;;;;;14.40;5.78;;;3.40;99.90;;;;;;5031135;28;20080;-86
2022/03/18 04:25:35;;;;;;;12.18;5.57;;;3.30;99.90;;;;;;5031221;28;20072;-86
2022/03/18 04:28:01;;;;;;;12.10;4.97;;;3.30;99.90;;;;;;5014306;28;20124;-86
2022/03/18 04:30:27;;;;;;;14.30;5.93;;;3.40;99.90;;;;;;5030419;28;20409;-86
2022/03/18 04:32:52;;;;;;;15.93;5.63;;;3.30;99.90;;;;;;5030660;28;20049;-86
2022/03/18 04:35:18;;;;;;;14.43;5.82;;;3.40;99.90;;;;;;5031045;28;20099;-86
2022/03/18 04:37:43;;;;;;;12.30;5.43;;;3.40;99.90;;;;;;5030855;28;20044;-86
2022/03/18 04:40:11;;;;;;;14.30;6.38;;;3.40;99.90;;;;;;5030449;28;20040;-86
2022/03/18 04:42:37;;;;;;;17.70;6.18;;;3.40;99.90;;;;;;5030532;28;20521;-86
2022/03/18 04:45:03;;;;;;;14.95;5.68;;;3.40;99.90;;;;;;5014112;28;20052;-86
2022/03/18 04:47:30;;;;;;;15.25;5.82;;;3.40;99.90;;;;;;5030291;28;20075;-86
2022/03/18 04:49:56;;;;;;;20.10;7.40;;;3.40;99.90;;;;;;5013655;28;20135;-86
2022/03/18 04:52:21;;;;;;;15.02;6.47;;;3.40;99.90;;;;;;5030494;28;20053;-86
2022/03/18 04:54:47;;;;;;;11.65;5.15;;;3.40;99.90;;;;;;5014373;28;20079;-85
2022/03/18 04:57:15;;;;;;;15.80;6.18;;;3.40;99.90;;;;;;5036460;28;20120;-86
2022/03/18 04:59:42;;;;;;;12.65;5.50;;;3.40;99.90;;;;;;5031848;28;20098;-86
2022/03/18 05:02:10;;;;;;;12.65;5.38;;;3.40;99.90;;;;;;5031817;28;20045;-86
2022/03/18 05:04:37;;;;;;;12.00;5.88;;;3.40;99.90;;;;;;5031514;28;20407;-86
2022/03/18 05:07:03;;;;;;;15.38;5.53;;;3.30;99.90;;;;;;5031257;28;20383;-87
2022/03/18 05:09:29;;;;;;;12.05;5.05;;;3.30;99.90;;;;;;5030458;28;20053;-86
2022/03/18 05:11:54;;;;;;;12.57;6.35;;;3.20;99.90;;;;;;5030222;28;20080;-86
2022/03/18 05:14:20;;;;;;;12.57;5.88;;;3.30;99.90;;;;;;5043195;28;20094;-86
2022/03/18 05:16:46;;;;;;;12.60;5.28;;;3.20;99.90;;;;;;5033429;28;20136;-86
2022/03/18 05:19:12;;;;;;;13.82;5.75;;;3.20;99.90;;;;;;5033269;28;20037;-86
2022/03/18 05:21:39;;;;;;;15.23;5.70;;;3.20;99.90;;;;;;5049756;28;20033;-86
2022/03/18 05:24:06;;;;;;;15.93;6.00;;;3.20;99.90;;;;;;5050030;28;20037;-86
2022/03/18 05:26:32;;;;;;;13.05;5.55;;;3.20;99.90;;;;;;5033218;28;20036;-86
2022/03/18 05:28:58;;;;;;;12.55;5.93;;;3.20;99.90;;;;;;5049796;28;20037;-86
2022/03/18 05:31:25;;;;;;;16.95;5.63;;;3.20;99.90;;;;;;5049643;28;20489;-86
2022/03/18 05:33:51;;;;;;;15.27;6.13;;;3.20;99.90;;;;;;5049823;28;20556;-86
2022/03/18 05:36:17;;;;;;;14.00;5.80;;;3.20;99.90;;;;;;5051870;28;20136;-86
2022/03/18 05:38:42;;;;;;;15.50;5.43;;;3.20;99.90;;;;;;5053781;28;20120;-86
2022/03/18 05:41:09;;;;;;;14.93;5.57;;;3.20;99.90;;;;;;5052885;28;20120;-86
2022/03/18 05:43:36;;;;;;;12.60;5.28;;;3.10;99.90;;;;;;5053451;28;20037;-86
2022/03/18 05:46:01;;;;;;;10.57;4.72;;;3.10;99.90;;;;;;5053838;28;20102;-86
2022/03/18 05:48:27;;;;;;;11.60;5.45;;;3.10;99.90;;;;;;5053318;28;20044;-86
2022/03/18 05:50:53;;;;;;;14.05;5.38;;;3.10;99.90;;;;;;5053158;28;20041;-86
2022/03/18 05:53:18;;;;;;;11.50;5.80;;;3.10;99.90;;;;;;5053296;28;20044;-87
2022/03/18 05:58:29;;;;;;;11.98;5.18;;;3.10;99.90;;;;;;5053407;28;20045;-86
2022/03/18 06:00:55;;;;;;;10.63;5.35;;;3.10;99.90;;;;;;5052811;28;20644;-86
2022/03/18 06:03:20;;;;;;;14.30;4.95;;;3.00;99.90;;;;;;5052985;28;20045;-86
2022/03/18 06:05:46;;;;;;;11.85;5.63;;;3.00;99.90;;;;;;5036673;28;20490;-86
2022/03/18 06:13:40;;;;;;;11.98;4.53;;;2.80;99.90;;;;;;5053611;28;20044;-86
2022/03/18 06:16:05;;;;;;;12.85;5.13;;;2.70;99.90;;;;;;5036488;28;20557;-86
2022/03/18 06:18:31;;;;;;;15.07;7.78;;;2.70;99.90;;;;;;5036765;28;20037;-86
2022/03/18 06:20:56;;;;;;;12.85;6.82;;;2.80;99.90;;;;;;5052843;28;20512;-87
2022/03/18 06:23:22;;;;;;;12.13;6.00;;;2.80;99.90;;;;;;5052955;28;20672;-87
2022/03/18 06:25:48;;;;;;;13.82;5.40;;;2.90;99.90;;;;;;5053016;28;20151;-86
2022/03/18 06:28:13;;;;;;;15.13;5.55;;;2.90;99.90;;;;;;5052943;28;20091;-86
2022/03/18 06:30:39;;;;;;;14.40;6.13;;;2.90;99.90;;;;;;5035963;28;20032;-86
2022/03/18 06:33:04;;;;;;;14.27;6.20;;;2.90;99.90;;;;;;5052549;28;20567;-86
2022/03/18 06:35:30;;;;;;;13.50;5.35;;;3.00;99.90;;;;;;5052652;28;20045;-86
2022/03/18 06:37:56;;;;;;;12.52;6.10;;;3.10;99.90;;;;;;5052034;28;20033;-86
2022/03/18 06:40:21;;;;;;;13.40;5.53;;;3.10;99.90;;;;;;5050522;28;20041;-86
2022/03/18 06:42:47;;;;;;;15.85;6.45;;;3.10;99.90;;;;;;5052808;28;20064;-86
2022/03/18 06:45:13;;;;;;;16.38;6.57;;;3.10;99.90;;;;;;5052617;28;20056;-86
2022/03/18 06:47:39;;;;;;;13.98;5.65;;;3.20;99.90;;;;;;5051365;28;20476;-86
2022/03/18 06:50:05;;;;;;;15.52;6.68;;;3.30;99.90;;;;;;5052050;28;20041;-85
2022/03/18 06:52:30;;;;;;;15.88;7.07;;;3.30;99.90;;;;;;5052618;28;20560;-86
2022/03/18 06:54:56;;;;;;;15.63;6.22;;;3.40;99.90;;;;;;5052566;28;20033;-86
2022/03/18 06:57:22;;;;;;;14.15;6.53;;;3.40;99.90;;;;;;5036135;28;20056;-86
2022/03/18 06:59:48;;;;;;;17.92;6.53;;;3.50;99.90;;;;;;5051681;28;20528;-86
2022/03/18 07:02:13;;;;;;;19.13;7.53;;;3.50;99.90;;;;;;5035085;28;20119;-86
2022/03/18 07:04:39;;;;;;;14.25;6.15;;;3.60;99.90;;;;;;5035604;28;20119;-86
2022/03/18 07:07:06;;;;;;;14.75;7.55;;;3.70;99.90;;;;;;5052101;28;20052;-86
2022/03/18 07:09:32;;;;;;;13.80;6.55;;;3.70;99.90;;;;;;5029134;28;20044;-86
2022/03/18 07:11:57;;;;;;;13.27;6.47;;;3.80;99.90;;;;;;5032507;28;20041;-87
2022/03/18 07:14:23;;;;;;;14.93;7.22;;;3.80;99.90;;;;;;5032081;28;20045;-87
2022/03/18 07:19:33;;;;;;;13.05;5.63;;;4.00;99.90;;;;;;5031495;28;20132;-86
2022/03/18 07:21:58;;;;;;;15.65;6.63;;;4.00;99.90;;;;;;5031780;28;20167;-87
2022/03/18 07:24:24;;;;;;;14.45;6.68;;;4.10;99.90;;;;;;5031993;28;20033;-87
2022/03/18 07:26:49;;;;;;;18.73;6.50;;;4.20;99.90;;;;;;5015213;28;20424;-87
2022/03/18 07:29:15;;;;;;;16.67;6.45;;;4.30;99.90;;;;;;5032043;28;20048;-86
2022/03/18 07:31:41;;;;;;;20.40;7.00;;;4.40;99.90;;;;;;5031258;28;20418;-87
2022/03/18 07:34:06;;;;;;;14.90;6.60;;;4.40;99.90;;;;;;5031554;28;20045;-86
2022/03/18 07:36:32;;;;;;;16.55;6.85;;;4.50;99.90;;;;;;5031452;28;20085;-87
2022/03/18 07:38:58;;;;;;;14.77;7.20;;;4.60;99.90;;;;;;5031670;28;20038;-87
2022/03/18 07:41:24;;;;;;;15.38;6.90;;;4.70;99.90;;;;;;5014163;28;20039;-86
2022/03/18 07:43:49;;;;;;;15.80;7.25;;;4.80;99.90;;;;;;5014769;28;20038;-87
2022/03/18 07:46:16;;;;;;;13.18;6.50;;;4.90;99.90;;;;;;5031519;28;20041;-87
2022/03/18 07:48:44;;;;;;;17.17;7.05;;;5.00;99.90;;;;;;5014618;28;20164;-87
2022/03/18 07:51:10;;;;;;;14.82;7.30;;;5.10;99.90;;;;;;5014554;28;20045;-87
2022/03/18 07:53:36;;;;;;;14.73;6.38;;;5.20;99.90;;;;;;5014567;28;20478;-87
2022/03/18 07:56:02;;;;;;;19.45;7.43;;;5.20;99.90;;;;;;5031153;28;20045;-87
2022/03/18 07:58:27;;;;;;;18.95;7.50;;;5.30;99.90;;;;;;5030845;28;20390;-88
2022/03/18 08:00:53;;;;;;;18.70;7.65;;;5.40;99.90;;;;;;5030551;28;20041;-88
2022/03/18 08:03:19;;;;;;;17.42;7.50;;;5.50;99.90;;;;;;5031090;28;20498;-87
2022/03/18 08:05:44;;;;;;;14.77;6.93;;;5.60;99.90;;;;;;5031602;28;20120;-87
2022/03/18 08:08:10;;;;;;;17.20;7.43;;;5.70;99.90;;;;;;5031005;28;20568;-87
2022/03/18 08:10:36;;;;;;;17.40;7.88;;;5.80;99.90;;;;;;5014362;28;20098;-87
2022/03/18 08:13:02;;;;;;;16.63;8.35;;;5.90;99.90;;;;;;5030940;28;20076;-86
2022/03/18 08:15:28;;;;;;;17.20;8.10;;;6.00;99.90;;;;;;5014449;28;20084;-87
2022/03/18 08:17:54;;;;;;;19.70;8.90;;;6.00;99.90;;;;;;5030347;28;20056;-88
2022/03/18 08:20:21;;;;;;;16.35;8.23;;;6.10;99.90;;;;;;5030630;28;20037;-87
2022/03/18 08:22:47;;;;;;;18.50;8.50;;;6.20;99.90;;;;;;5030968;28;20124;-87
2022/03/18 08:25:13;;;;;;;15.38;8.60;;;6.30;99.90;;;;;;5029602;28;20041;-87
2022/03/18 08:27:39;;;;;;;16.63;8.73;;;6.40;99.90;;;;;;5030667;28;20037;-87
2022/03/18 08:30:07;;;;;;;18.70;9.68;;;6.50;99.90;;;;;;5030328;28;20487;-86
2022/03/18 08:32:33;;;;;;;18.63;9.65;;;6.60;99.90;;;;;;5030664;28;20045;-87
2022/03/18 08:34:59;;;;;;;17.85;9.77;;;6.70;99.90;;;;;;5030862;28;20487;-87
2022/03/18 08:40:11;;;;;;;19.75;9.75;;;6.90;99.90;;;;;;5030228;28;20136;-87
2022/03/18 08:42:37;;;;;;;20.65;10.40;;;7.10;99.90;;;;;;5029935;28;20037;-87
2022/03/18 08:45:04;;;;;;;19.67;10.30;;;7.20;99.90;;;;;;5030569;28;20033;-87
2022/03/18 08:47:30;;;;;;;18.90;10.32;;;7.30;99.90;;;;;;5030172;28;20033;-87
2022/03/18 08:49:56;;;;;;;19.80;11.45;;;7.50;99.90;;;;;;5030396;28;20052;-87
2022/03/18 08:52:22;;;;;;;22.05;11.48;;;7.60;99.90;;;;;;5030451;28;20033;-87
2022/03/18 08:54:47;;;;;;;20.05;10.43;;;7.70;99.90;;;;;;5030574;28;20041;-88
2022/03/18 08:57:14;;;;;;;22.27;11.48;;;7.90;99.90;;;;;;5030191;28;20458;-87
2022/03/18 08:59:39;;;;;;;22.25;11.13;;;8.00;99.90;;;;;;5013669;28;20096;-87
2022/03/18 09:02:05;;;;;;;21.27;11.20;;;8.10;99.90;;;;;;5030308;28;20037;-87
2022/03/18 09:04:31;;;;;;;17.08;10.50;;;8.30;99.90;;;;;;5013824;28;20037;-87
2022/03/18 09:06:56;;;;;;;20.75;11.38;;;8.40;99.90;;;;;;5030191;28;20034;-88
2022/03/18 09:09:22;;;;;;;27.50;11.90;;;8.50;99.90;;;;;;5013857;28;20107;-88
2022/03/18 09:11:47;;;;;;;21.15;11.27;;;8.70;99.90;;;;;;5012830;28;20512;-87
2022/03/18 09:14:14;;;;;;;21.33;11.73;;;8.80;99.90;;;;;;5013655;28;20080;-88
2022/03/18 09:16:39;;;;;;;19.80;11.93;;;9.00;99.90;;;;;;5030341;28;20397;-87
2022/03/18 09:19:06;;;;;;;19.58;12.05;;;9.20;99.90;;;;;;5030388;28;20512;-87
2022/03/18 09:21:32;;;;;;;20.25;11.15;;;9.30;99.90;;;;;;5029857;28;20044;-87
2022/03/18 09:23:58;;;;;;;21.05;10.93;;;9.40;99.90;;;;;;5030485;28;20037;-89
2022/03/18 09:26:24;;;;;;;21.33;11.85;;;9.50;99.90;;;;;;5029676;28;20046;-89
2022/03/18 09:28:50;;;;;;;21.77;11.82;;;9.70;99.90;;;;;;5030294;28;20071;-89
2022/03/18 09:31:16;;;;;;;20.30;12.27;;;9.80;99.90;;;;;;5029785;28;20530;-89
2022/03/18 09:33:42;;;;;;;21.08;11.75;;;10.00;99.90;;;;;;5014030;28;20592;-89
2022/03/18 09:36:10;;;;;;;21.73;11.98;;;10.20;99.90;;;;;;5013531;28;20496;-90
2022/03/18 09:38:37;;;;;;;19.30;11.35;;;10.30;99.90;;;;;;5013682;28;20095;-89
2022/03/18 09:41:03;;;;;;;19.15;11.63;;;10.50;99.90;;;;;;5029628;28;20052;-90
2022/03/18 09:43:33;;;;;;;20.23;12.15;;;10.70;99.90;;;;;;5028931;28;20048;-90
2022/03/18 09:45:59;;;;;;;21.27;11.32;;;10.90;99.90;;;;;;5029821;28;20498;-90
2022/03/18 09:48:26;;;;;;;21.48;12.05;;;11.10;99.90;;;;;;5029998;28;20046;-89
2022/03/18 09:50:52;;;;;;;20.08;12.13;;;11.20;99.90;;;;;;5029477;28;20124;-90
2022/03/18 09:53:18;;;;;;;22.20;11.02;;;11.40;99.90;;;;;;5029945;28;20041;-90
2022/03/18 09:55:44;;;;;;;22.77;12.40;;;11.60;99.90;;;;;;5036369;28;20443;-89
2022/03/18 09:58:11;;;;;;;21.42;11.85;;;11.80;99.90;;;;;;5016421;28;20033;-90
2022/03/18 10:00:37;;;;;;;18.77;11.93;;;11.90;99.90;;;;;;5031301;28;20034;-89
2022/03/18 10:03:16;;;;;;;18.67;11.68;;;12.10;99.90;;;;;;5036535;28;20040;-90
2022/03/18 10:06:02;;;;;;;24.20;12.20;;;12.30;99.90;;;;;;5034663;28;20056;-90
2022/03/18 10:08:44;;;;;;;17.80;11.48;;;12.50;99.90;;;;;;5026912;28;20042;-89
2022/03/18 10:11:32;;;;;;;20.70;12.38;;;12.60;99.90;;;;;;5012627;28;20048;-90
2022/03/18 10:14:09;;;;;;;19.40;11.15;;;12.80;99.90;;;;;;5029886;28;20048;-89
2022/03/18 10:16:44;;;;;;;18.92;11.30;;;12.90;99.90;;;;;;5029461;28;20438;-89
2022/03/18 10:19:21;;;;;;;18.58;10.82;;;13.10;99.90;;;;;;5029850;28;20037;-89
2022/03/18 10:22:00;;;;;;;18.85;12.18;;;13.30;99.90;;;;;;5030824;28;20048;-89
2022/03/18 10:24:28;;;;;;;16.75;10.50;;;13.40;99.90;;;;;;5034625;28;20038;-89
2022/03/18 10:27:20;;;;;;;19.35;11.73;;;13.50;99.90;;;;;;5016461;28;20049;-89
2022/03/18 10:29:52;;;;;;;21.75;12.18;;;13.50;98.80;;;;;;5024942;28;20424;-89
2022/03/18 10:32:19;;;;;;;17.88;11.27;;;13.50;99.40;;;;;;5033320;28;20137;-89
2022/03/18 10:37:49;;;;;;;18.00;11.07;;;13.70;99.30;;;;;;5032960;28;20053;-90
2022/03/18 10:40:31;;;;;;;19.23;11.18;;;13.90;98.40;;;;;;5032673;28;20046;-90
2022/03/18 10:42:58;;;;;;;16.65;10.73;;;14.10;98.40;;;;;;5015583;28;20048;-90
2022/03/18 10:45:24;;;;;;;19.08;11.30;;;14.20;98.30;;;;;;5016103;28;20037;-90
2022/03/18 10:47:52;;;;;;;18.52;11.73;;;14.40;96.90;;;;;;5032805;28;20129;-89
2022/03/18 10:50:21;;;;;;;21.08;11.98;;;14.40;96.40;;;;;;5015867;28;20328;-90
2022/03/18 10:52:50;;;;;;;18.75;11.73;;;14.50;96.70;;;;;;5016238;28;20487;-90
2022/03/18 10:55:20;;;;;;;21.98;12.13;;;14.60;97.00;;;;;;5032994;28;20354;-90
2022/03/18 10:57:51;;;;;;;22.52;12.38;;;14.90;97.00;;;;;;5032580;28;20492;-90
2022/03/18 11:00:35;;;;;;;19.10;11.38;;;15.10;95.70;;;;;;5032350;28;20045;-90
2022/03/18 11:03:03;;;;;;;18.25;10.55;;;15.30;94.40;;;;;;5032534;28;20046;-90
2022/03/18 11:05:35;;;;;;;17.02;10.65;;;15.40;94.00;;;;;;5032491;28;20096;-88
2022/03/18 11:08:03;;;;;;;19.80;10.52;;;15.60;94.80;;;;;;5032484;28;20042;-88
2022/03/18 11:13:15;;;;;;;19.35;9.73;;;15.90;92.20;;;;;;5032443;28;20038;-88
2022/03/18 11:15:44;;;;;;;19.80;9.93;;;16.00;92.00;;;;;;5032229;28;20095;-88
2022/03/18 11:18:12;;;;;;;15.93;9.38;;;16.20;92.10;;;;;;5032301;28;20045;-88
2022/03/18 11:20:43;;;;;;;18.52;10.23;;;16.40;91.10;;;;;;5015282;28;20044;-88
2022/03/18 11:23:18;;;;;;;17.95;9.57;;;16.60;89.30;;;;;;5032259;28;20116;-88
2022/03/18 11:25:51;;;;;;;20.20;10.48;;;16.60;88.00;;;;;;5032317;28;20045;-88
2022/03/18 11:28:19;;;;;;;16.98;8.77;;;16.50;87.10;;;;;;5031828;28;20410;-88
2022/03/18 11:30:47;;;;;;;18.17;9.05;;;16.60;86.10;;;;;;5031790;28;20498;-88
2022/03/18 11:33:17;;;;;;;18.00;9.55;;;16.70;85.60;;;;;;5031045;28;20033;-89
2022/03/18 11:35:51;;;;;;;15.88;8.85;;;16.80;84.10;;;;;;5031922;28;20038;-89
2022/03/18 11:38:19;;;;;;;15.07;8.73;;;16.80;84.30;;;;;;5031970;28;20096;-88
2022/03/18 11:40:58;;;;;;;14.60;7.65;;;16.90;86.40;;;;;;5031387;28;20088;-88
2022/03/18 11:43:36;;;;;;;16.15;8.23;;;17.10;83.20;;;;;;5032091;28;20423;-88
2022/03/18 11:46:14;;;;;;;16.13;8.20;;;17.30;81.10;;;;;;5031954;28;20045;-88
2022/03/18 11:48:46;;;;;;;17.15;8.68;;;17.50;77.30;;;;;;5031518;28;20045;-88
2022/03/18 11:51:28;;;;;;;14.05;8.18;;;17.60;76.90;;;;;;5029711;28;20045;-88
2022/03/18 11:54:16;;;;;;;17.30;7.83;;;17.70;77.60;;;;;;5031420;28;20392;-88
2022/03/18 11:56:52;;;;;;;15.70;7.75;;;17.70;76.50;;;;;;5031066;28;20302;-88
2022/03/18 11:59:24;;;;;;;15.98;7.97;;;17.90;75.90;;;;;;5014724;28;20060;-88
2022/03/18 12:01:57;;;;;;;15.18;7.82;;;17.90;74.30;;;;;;5031204;28;20115;-90
2022/03/18 12:04:39;;;;;;;16.52;8.82;;;17.80;74.50;;;;;;5031162;28;20450;-88
2022/03/18 12:07:12;;;;;;;16.43;7.97;;;17.90;74.40;;;;;;5031429;28;20056;-85
2022/03/18 12:10:02;;;;;;;17.05;7.80;;;18.00;72.80;;;;;;5031124;28;20045;-86
2022/03/18 12:12:37;;;;;;;16.48;7.75;;;18.20;72.70;;;;;;5023681;28;20057;-86
2022/03/18 12:15:17;;;;;;;15.05;7.80;;;18.30;72.40;;;;;;5014538;28;20049;-86
2022/03/18 12:17:42;;;;;;;15.40;7.30;;;18.40;70.30;;;;;;5031179;28;20128;-86
2022/03/18 12:20:09;;;;;;;14.35;7.53;;;18.50;70.90;;;;;;5014182;28;20126;-86
2022/03/18 12:22:40;;;;;;;14.73;7.18;;;18.60;71.80;;;;;;5031038;28;20041;-86
2022/03/18 12:25:08;;;;;;;21.70;9.23;;;18.80;68.40;;;;;;5029388;28;20037;-86
2022/03/18 12:27:36;;;;;;;13.32;6.72;;;18.90;70.50;;;;;;5030798;28;20037;-86
2022/03/18 12:30:05;;;;;;;12.55;4.45;;;19.20;70.50;;;;;;5031966;28;20041;-86
2022/03/18 12:32:31;;;;;;;11.45;4.53;;;19.40;68.00;;;;;;5031221;28;20482;-86
2022/03/18 12:34:57;;;;;;;12.25;4.80;;;19.70;67.70;;;;;;5014697;28;20034;-86
2022/03/18 12:37:27;;;;;;;13.60;4.85;;;19.90;65.50;;;;;;5030846;28;20494;-86
2022/03/18 12:40:13;;;;;;;10.43;4.00;;;19.80;64.50;;;;;;5030626;28;20041;-86
2022/03/18 12:42:46;;;;;;;12.30;4.55;;;19.80;63.50;;;;;;5030886;28;20045;-86
2022/03/18 12:45:12;;;;;;;14.82;5.15;;;19.70;62.90;;;;;;5030680;28;20041;-86
2022/03/18 12:47:38;;;;;;;11.48;4.10;;;19.50;61.90;;;;;;5030630;28;20038;-85
2022/03/18 12:50:04;;;;;;;11.18;3.80;;;19.40;62.20;;;;;;5030167;28;20037;-86
2022/03/18 12:52:29;;;;;;;11.18;4.45;;;19.60;62.30;;;;;;5030749;28;20033;-86
2022/03/18 12:55:10;;;;;;;11.13;3.88;;;19.70;62.60;;;;;;5030783;28;20033;-86
2022/03/18 12:57:41;;;;;;;11.25;4.05;;;19.70;59.30;;;;;;5030980;28;20133;-86
2022/03/18 13:00:11;;;;;;;11.32;3.47;;;19.60;60.10;;;;;;5030245;28;20589;-85
2022/03/18 13:02:37;;;;;;;10.07;3.00;;;19.70;60.50;;;;;;5030452;28;20048;-86
2022/03/18 13:05:05;;;;;;;8.77;2.80;;;20.10;60.00;;;;;;5030572;28;20037;-86
2022/03/18 13:07:31;;;;;;;9.48;2.63;;;20.50;59.00;;;;;;5014074;28;20044;-86
2022/03/18 13:09:57;;;;;;;9.02;2.75;;;20.80;59.40;;;;;;5030117;28;20041;-86
2022/03/18 13:12:25;;;;;;;9.80;3.17;;;21.30;57.40;;;;;;5030487;28;20041;-86
2022/03/18 13:14:53;;;;;;;10.80;3.30;;;21.50;55.50;;;;;;5030363;28;20037;-86
2022/03/18 13:17:24;;;;;;;11.80;3.42;;;21.70;55.80;;;;;;5030132;28;20444;-86